sensor_id;sensor_type;location;lat;lon;timestamp;P1;durP1;ratioP1;P2;durP2;ratioP2
46589;SDS011;32313;48.722;9.362;2022-09-13T00:00:39;8.03;;;7.33;;
46589;SDS011;32313;48.722;9.362;2022-09-13T00:03:05;9.77;;;8.70;;
46589;SDS011;32313;48.722;9.362;2022-09-13T00:05:32;8.50;;;7.67;;
46589;SDS011;32313;48.722;9.362;2022-09-13T00:07:59;8.17;;;7.37;;
46589;SDS011;32313;48.722;9.362;2022-09-13T00:10:25;8.40;;;7.60;;
46589;SDS011;32313;48.722;9.362;2022-09-13T00:12:51;8.47;;;7.77;;
46589;SDS011;32313;48.722;9.362;2022-09-13T00:15:17;10.73;;;8.67;;
46589;SDS011;32313;48.722;9.362;2022-09-13T00:17:43;8.57;;;7.73;;
46589;SDS011;32313;48.722;9.362;2022-09-13T00:20:09;9.80;;;8.73;;
46589;SDS011;32313;48.722;9.362;2022-09-13T00:22:35;9.87;;;8.53;;
46589;SDS011;32313;48.722;9.362;2022-09-13T00:25:02;10.10;;;9.10;;
46589;SDS011;32313;48.722;9.362;2022-09-13T00:27:28;9.47;;;8.57;;
46589;SDS011;32313;48.722;9.362;2022-09-13T00:29:56;9.63;;;8.63;;
46589;SDS011;32313;48.722;9.362;2022-09-13T00:32:21;11.63;;;9.03;;
46589;SDS011;32313;48.722;9.362;2022-09-13T00:34:47;8.93;;;8.03;;
46589;SDS011;32313;48.722;9.362;2022-09-13T00:37:12;8.53;;;7.80;;
46589;SDS011;32313;48.722;9.362;2022-09-13T00:39:38;8.87;;;7.97;;
46589;SDS011;32313;48.722;9.362;2022-09-13T00:42:04;8.10;;;7.30;;
46589;SDS011;32313;48.722;9.362;2022-09-13T00:47:16;8.63;;;7.73;;
46589;SDS011;32313;48.722;9.362;2022-09-13T00:49:46;11.50;;;8.30;;
46589;SDS011;32313;48.722;9.362;2022-09-13T00:52:17;8.53;;;7.70;;
46589;SDS011;32313;48.722;9.362;2022-09-13T00:54:51;9.03;;;8.20;;
46589;SDS011;32313;48.722;9.362;2022-09-13T00:57:22;8.23;;;7.47;;
46589;SDS011;32313;48.722;9.362;2022-09-13T01:00:11;8.80;;;7.97;;
46589;SDS011;32313;48.722;9.362;2022-09-13T01:02:57;7.97;;;7.17;;
46589;SDS011;32313;48.722;9.362;2022-09-13T01:05:26;8.37;;;7.70;;
46589;SDS011;32313;48.722;9.362;2022-09-13T01:07:56;7.87;;;7.07;;
46589;SDS011;32313;48.722;9.362;2022-09-13T01:10:24;8.93;;;8.00;;
46589;SDS011;32313;48.722;9.362;2022-09-13T01:13:03;8.13;;;7.53;;
46589;SDS011;32313;48.722;9.362;2022-09-13T01:15:37;9.00;;;7.67;;
46589;SDS011;32313;48.722;9.362;2022-09-13T01:18:03;8.43;;;7.63;;
46589;SDS011;32313;48.722;9.362;2022-09-13T01:20:36;8.47;;;7.67;;
46589;SDS011;32313;48.722;9.362;2022-09-13T01:37:09;9.27;;;8.30;;
46589;SDS011;32313;48.722;9.362;2022-09-13T01:40:31;8.93;;;8.10;;
46589;SDS011;32313;48.722;9.362;2022-09-13T01:43:03;9.27;;;8.33;;
46589;SDS011;32313;48.722;9.362;2022-09-13T01:50:58;10.10;;;8.97;;
46589;SDS011;32313;48.722;9.362;2022-09-13T01:56:19;11.33;;;9.63;;
46589;SDS011;32313;48.722;9.362;2022-09-13T01:58:53;9.87;;;8.97;;
46589;SDS011;32313;48.722;9.362;2022-09-13T02:01:30;10.53;;;9.57;;
46589;SDS011;32313;48.722;9.362;2022-09-13T02:04:24;9.40;;;8.50;;
46589;SDS011;32313;48.722;9.362;2022-09-13T02:07:09;11.27;;;9.87;;
46589;SDS011;32313;48.722;9.362;2022-09-13T02:09:46;11.33;;;9.33;;
46589;SDS011;32313;48.722;9.362;2022-09-13T02:12:16;13.73;;;10.30;;
46589;SDS011;32313;48.722;9.362;2022-09-13T02:15:10;11.57;;;10.07;;
46589;SDS011;32313;48.722;9.362;2022-09-13T02:17:40;11.07;;;9.93;;
46589;SDS011;32313;48.722;9.362;2022-09-13T02:20:23;11.47;;;10.27;;
46589;SDS011;32313;48.722;9.362;2022-09-13T02:22:55;10.80;;;8.87;;
46589;SDS011;32313;48.722;9.362;2022-09-13T02:25:24;12.90;;;10.20;;
46589;SDS011;32313;48.722;9.362;2022-09-13T02:27:53;13.63;;;11.20;;
46589;SDS011;32313;48.722;9.362;2022-09-13T02:30:23;12.47;;;11.23;;
46589;SDS011;32313;48.722;9.362;2022-09-13T02:32:53;10.70;;;9.60;;
46589;SDS011;32313;48.722;9.362;2022-09-13T02:35:37;10.73;;;9.70;;
46589;SDS011;32313;48.722;9.362;2022-09-13T02:38:09;11.80;;;10.67;;
46589;SDS011;32313;48.722;9.362;2022-09-13T02:41:27;12.03;;;10.80;;
46589;SDS011;32313;48.722;9.362;2022-09-13T02:43:38;12.03;;;10.83;;
46589;SDS011;32313;48.722;9.362;2022-09-13T02:51:15;12.87;;;10.70;;
46589;SDS011;32313;48.722;9.362;2022-09-13T02:56:48;12.00;;;10.80;;
46589;SDS011;32313;48.722;9.362;2022-09-13T02:59:25;12.27;;;10.90;;
46589;SDS011;32313;48.722;9.362;2022-09-13T03:01:53;12.57;;;10.70;;
46589;SDS011;32313;48.722;9.362;2022-09-13T03:04:21;13.33;;;11.93;;
46589;SDS011;32313;48.722;9.362;2022-09-13T03:06:48;11.70;;;10.60;;
46589;SDS011;32313;48.722;9.362;2022-09-13T03:09:14;12.40;;;11.27;;
46589;SDS011;32313;48.722;9.362;2022-09-13T03:19:44;11.23;;;10.13;;
46589;SDS011;32313;48.722;9.362;2022-09-13T03:25:30;13.23;;;10.97;;
46589;SDS011;32313;48.722;9.362;2022-09-13T03:28:13;11.17;;;10.07;;
46589;SDS011;32313;48.722;9.362;2022-09-13T03:30:49;12.43;;;10.77;;
46589;SDS011;32313;48.722;9.362;2022-09-13T03:35:54;11.50;;;10.40;;
46589;SDS011;32313;48.722;9.362;2022-09-13T03:38:30;12.03;;;10.80;;
46589;SDS011;32313;48.722;9.362;2022-09-13T03:41:08;11.33;;;10.20;;
46589;SDS011;32313;48.722;9.362;2022-09-13T03:43:39;12.97;;;11.27;;
46589;SDS011;32313;48.722;9.362;2022-09-13T03:46:24;10.60;;;9.57;;
46589;SDS011;32313;48.722;9.362;2022-09-13T03:48:55;10.53;;;9.60;;
46589;SDS011;32313;48.722;9.362;2022-09-13T03:51:24;10.47;;;9.53;;
46589;SDS011;32313;48.722;9.362;2022-09-13T03:53:52;10.60;;;9.60;;
46589;SDS011;32313;48.722;9.362;2022-09-13T03:56:22;12.90;;;10.73;;
46589;SDS011;32313;48.722;9.362;2022-09-13T03:58:48;10.60;;;9.37;;
46589;SDS011;32313;48.722;9.362;2022-09-13T04:01:17;10.90;;;9.80;;
46589;SDS011;32313;48.722;9.362;2022-09-13T04:03:45;15.20;;;11.30;;
46589;SDS011;32313;48.722;9.362;2022-09-13T04:06:11;10.60;;;9.50;;
46589;SDS011;32313;48.722;9.362;2022-09-13T04:08:37;11.63;;;9.70;;
46589;SDS011;32313;48.722;9.362;2022-09-13T04:11:03;11.23;;;9.83;;
46589;SDS011;32313;48.722;9.362;2022-09-13T04:13:29;12.03;;;10.17;;
46589;SDS011;32313;48.722;9.362;2022-09-13T04:15:59;11.43;;;10.27;;
46589;SDS011;32313;48.722;9.362;2022-09-13T04:18:26;12.97;;;10.13;;
46589;SDS011;32313;48.722;9.362;2022-09-13T04:20:53;11.47;;;10.00;;
46589;SDS011;32313;48.722;9.362;2022-09-13T04:23:20;11.60;;;10.40;;
46589;SDS011;32313;48.722;9.362;2022-09-13T04:25:47;11.93;;;10.73;;
46589;SDS011;32313;48.722;9.362;2022-09-13T04:28:12;12.70;;;9.87;;
46589;SDS011;32313;48.722;9.362;2022-09-13T04:30:38;11.97;;;9.70;;
46589;SDS011;32313;48.722;9.362;2022-09-13T04:33:07;11.30;;;10.20;;
46589;SDS011;32313;48.722;9.362;2022-09-13T04:35:33;12.40;;;11.13;;
46589;SDS011;32313;48.722;9.362;2022-09-13T04:37:58;14.33;;;11.20;;
46589;SDS011;32313;48.722;9.362;2022-09-13T04:40:24;13.13;;;11.30;;
46589;SDS011;32313;48.722;9.362;2022-09-13T04:42:50;15.10;;;11.93;;
46589;SDS011;32313;48.722;9.362;2022-09-13T04:45:15;14.17;;;11.20;;
46589;SDS011;32313;48.722;9.362;2022-09-13T04:47:41;15.90;;;11.00;;
46589;SDS011;32313;48.722;9.362;2022-09-13T04:50:07;11.83;;;10.30;;
46589;SDS011;32313;48.722;9.362;2022-09-13T04:52:34;13.10;;;10.80;;
46589;SDS011;32313;48.722;9.362;2022-09-13T04:54:59;16.33;;;11.30;;
46589;SDS011;32313;48.722;9.362;2022-09-13T04:57:26;14.83;;;11.30;;
46589;SDS011;32313;48.722;9.362;2022-09-13T04:59:53;12.93;;;11.23;;
46589;SDS011;32313;48.722;9.362;2022-09-13T05:02:18;13.30;;;11.50;;
46589;SDS011;32313;48.722;9.362;2022-09-13T05:04:44;13.47;;;12.07;;
46589;SDS011;32313;48.722;9.362;2022-09-13T05:07:10;11.37;;;10.20;;
46589;SDS011;32313;48.722;9.362;2022-09-13T05:09:35;11.90;;;10.67;;
46589;SDS011;32313;48.722;9.362;2022-09-13T05:12:01;13.80;;;11.37;;
46589;SDS011;32313;48.722;9.362;2022-09-13T05:14:27;12.40;;;10.40;;
46589;SDS011;32313;48.722;9.362;2022-09-13T05:16:53;14.30;;;10.23;;
46589;SDS011;32313;48.722;9.362;2022-09-13T05:19:18;11.57;;;10.40;;
46589;SDS011;32313;48.722;9.362;2022-09-13T05:21:44;13.87;;;10.53;;
46589;SDS011;32313;48.722;9.362;2022-09-13T05:24:10;11.60;;;9.87;;
46589;SDS011;32313;48.722;9.362;2022-09-13T05:26:36;13.83;;;10.40;;
46589;SDS011;32313;48.722;9.362;2022-09-13T05:29:04;11.60;;;9.90;;
46589;SDS011;32313;48.722;9.362;2022-09-13T05:31:31;15.27;;;10.37;;
46589;SDS011;32313;48.722;9.362;2022-09-13T05:34:02;12.17;;;10.90;;
46589;SDS011;32313;48.722;9.362;2022-09-13T05:36:30;12.00;;;10.60;;
46589;SDS011;32313;48.722;9.362;2022-09-13T05:38:57;13.27;;;10.50;;
46589;SDS011;32313;48.722;9.362;2022-09-13T05:41:24;14.33;;;10.33;;
46589;SDS011;32313;48.722;9.362;2022-09-13T05:43:50;12.00;;;9.80;;
46589;SDS011;32313;48.722;9.362;2022-09-13T05:46:16;12.27;;;10.93;;
46589;SDS011;32313;48.722;9.362;2022-09-13T05:48:44;13.87;;;10.03;;
46589;SDS011;32313;48.722;9.362;2022-09-13T05:51:11;14.47;;;11.07;;
46589;SDS011;32313;48.722;9.362;2022-09-13T05:53:39;16.60;;;11.70;;
46589;SDS011;32313;48.722;9.362;2022-09-13T05:56:08;15.53;;;10.53;;
46589;SDS011;32313;48.722;9.362;2022-09-13T05:58:37;20.23;;;11.17;;
46589;SDS011;32313;48.722;9.362;2022-09-13T06:01:05;19.90;;;12.07;;
46589;SDS011;32313;48.722;9.362;2022-09-13T06:03:31;16.80;;;11.50;;
46589;SDS011;32313;48.722;9.362;2022-09-13T06:05:57;17.63;;;11.63;;
46589;SDS011;32313;48.722;9.362;2022-09-13T06:08:24;16.27;;;10.20;;
46589;SDS011;32313;48.722;9.362;2022-09-13T06:10:57;16.17;;;10.13;;
46589;SDS011;32313;48.722;9.362;2022-09-13T06:13:24;18.77;;;10.77;;
46589;SDS011;32313;48.722;9.362;2022-09-13T06:15:50;17.60;;;11.10;;
46589;SDS011;32313;48.722;9.362;2022-09-13T06:18:17;16.13;;;10.33;;
46589;SDS011;32313;48.722;9.362;2022-09-13T06:20:43;17.77;;;11.57;;
46589;SDS011;32313;48.722;9.362;2022-09-13T06:23:09;13.17;;;9.97;;
46589;SDS011;32313;48.722;9.362;2022-09-13T06:25:35;15.83;;;11.03;;
46589;SDS011;32313;48.722;9.362;2022-09-13T06:28:01;14.87;;;10.60;;
46589;SDS011;32313;48.722;9.362;2022-09-13T06:30:28;13.63;;;10.10;;
46589;SDS011;32313;48.722;9.362;2022-09-13T06:32:54;11.70;;;9.03;;
46589;SDS011;32313;48.722;9.362;2022-09-13T06:35:21;14.50;;;8.43;;
46589;SDS011;32313;48.722;9.362;2022-09-13T06:37:46;11.43;;;7.93;;
46589;SDS011;32313;48.722;9.362;2022-09-13T06:40:12;10.27;;;8.50;;
46589;SDS011;32313;48.722;9.362;2022-09-13T06:42:38;8.87;;;7.93;;
46589;SDS011;32313;48.722;9.362;2022-09-13T06:45:04;11.80;;;8.03;;
46589;SDS011;32313;48.722;9.362;2022-09-13T06:47:30;12.23;;;9.70;;
46589;SDS011;32313;48.722;9.362;2022-09-13T06:49:56;10.90;;;9.60;;
46589;SDS011;32313;48.722;9.362;2022-09-13T06:52:22;13.17;;;9.27;;
46589;SDS011;32313;48.722;9.362;2022-09-13T06:54:48;15.97;;;9.83;;
46589;SDS011;32313;48.722;9.362;2022-09-13T06:57:15;15.07;;;8.47;;
46589;SDS011;32313;48.722;9.362;2022-09-13T06:59:40;9.50;;;7.00;;
46589;SDS011;32313;48.722;9.362;2022-09-13T07:02:06;10.30;;;7.83;;
46589;SDS011;32313;48.722;9.362;2022-09-13T07:04:33;7.13;;;5.93;;
46589;SDS011;32313;48.722;9.362;2022-09-13T07:06:59;6.67;;;6.03;;
46589;SDS011;32313;48.722;9.362;2022-09-13T07:09:25;5.63;;;4.57;;
46589;SDS011;32313;48.722;9.362;2022-09-13T07:11:51;7.40;;;5.37;;
46589;SDS011;32313;48.722;9.362;2022-09-13T07:14:19;5.93;;;4.40;;
46589;SDS011;32313;48.722;9.362;2022-09-13T07:16:48;5.93;;;5.33;;
46589;SDS011;32313;48.722;9.362;2022-09-13T07:19:16;6.80;;;5.30;;
46589;SDS011;32313;48.722;9.362;2022-09-13T07:21:44;5.13;;;4.63;;
46589;SDS011;32313;48.722;9.362;2022-09-13T07:24:10;4.70;;;4.30;;
46589;SDS011;32313;48.722;9.362;2022-09-13T07:26:36;7.30;;;4.50;;
46589;SDS011;32313;48.722;9.362;2022-09-13T07:29:07;7.90;;;4.80;;
46589;SDS011;32313;48.722;9.362;2022-09-13T07:31:35;7.70;;;4.90;;
46589;SDS011;32313;48.722;9.362;2022-09-13T07:34:06;7.10;;;4.60;;
46589;SDS011;32313;48.722;9.362;2022-09-13T07:36:36;7.57;;;4.57;;
46589;SDS011;32313;48.722;9.362;2022-09-13T07:39:03;5.00;;;4.30;;
46589;SDS011;32313;48.722;9.362;2022-09-13T07:41:29;7.10;;;4.80;;
46589;SDS011;32313;48.722;9.362;2022-09-13T07:43:56;5.13;;;4.63;;
46589;SDS011;32313;48.722;9.362;2022-09-13T07:46:24;7.20;;;5.47;;
46589;SDS011;32313;48.722;9.362;2022-09-13T07:48:52;7.00;;;5.27;;
46589;SDS011;32313;48.722;9.362;2022-09-13T07:51:22;6.10;;;5.00;;
46589;SDS011;32313;48.722;9.362;2022-09-13T07:53:50;9.00;;;4.37;;
46589;SDS011;32313;48.722;9.362;2022-09-13T07:56:19;7.87;;;4.53;;
46589;SDS011;32313;48.722;9.362;2022-09-13T07:58:47;6.17;;;4.77;;
46589;SDS011;32313;48.722;9.362;2022-09-13T08:01:27;7.97;;;4.60;;
46589;SDS011;32313;48.722;9.362;2022-09-13T08:04:09;6.87;;;4.50;;
46589;SDS011;32313;48.722;9.362;2022-09-13T08:06:47;4.57;;;4.07;;
46589;SDS011;32313;48.722;9.362;2022-09-13T08:09:13;6.93;;;4.20;;
46589;SDS011;32313;48.722;9.362;2022-09-13T08:11:41;6.57;;;4.17;;
46589;SDS011;32313;48.722;9.362;2022-09-13T08:14:09;7.97;;;3.97;;
46589;SDS011;32313;48.722;9.362;2022-09-13T08:16:37;6.70;;;4.30;;
46589;SDS011;32313;48.722;9.362;2022-09-13T08:19:04;9.10;;;5.07;;
46589;SDS011;32313;48.722;9.362;2022-09-13T08:21:31;5.00;;;4.43;;
46589;SDS011;32313;48.722;9.362;2022-09-13T08:24:00;5.67;;;4.17;;
46589;SDS011;32313;48.722;9.362;2022-09-13T08:26:29;5.80;;;4.30;;
46589;SDS011;32313;48.722;9.362;2022-09-13T08:28:57;9.90;;;4.60;;
46589;SDS011;32313;48.722;9.362;2022-09-13T08:31:24;8.20;;;4.13;;
46589;SDS011;32313;48.722;9.362;2022-09-13T08:33:51;8.67;;;3.93;;
46589;SDS011;32313;48.722;9.362;2022-09-13T08:36:18;7.37;;;3.80;;
46589;SDS011;32313;48.722;9.362;2022-09-13T08:38:48;6.90;;;3.30;;
46589;SDS011;32313;48.722;9.362;2022-09-13T08:46:32;6.37;;;3.73;;
46589;SDS011;32313;48.722;9.362;2022-09-13T08:49:06;7.80;;;3.40;;
46589;SDS011;32313;48.722;9.362;2022-09-13T08:51:39;4.33;;;2.90;;
46589;SDS011;32313;48.722;9.362;2022-09-13T08:54:09;4.80;;;2.70;;
46589;SDS011;32313;48.722;9.362;2022-09-13T08:56:38;6.20;;;2.60;;
46589;SDS011;32313;48.722;9.362;2022-09-13T09:02:37;5.07;;;2.80;;
46589;SDS011;32313;48.722;9.362;2022-09-13T09:05:45;7.83;;;2.60;;
46589;SDS011;32313;48.722;9.362;2022-09-13T09:11:08;4.93;;;2.70;;
46589;SDS011;32313;48.722;9.362;2022-09-13T09:14:23;9.90;;;2.80;;
46589;SDS011;32313;48.722;9.362;2022-09-13T09:16:38;4.93;;;2.87;;
46589;SDS011;32313;48.722;9.362;2022-09-13T09:19:30;4.13;;;2.10;;
46589;SDS011;32313;48.722;9.362;2022-09-13T09:22:01;5.70;;;2.63;;
46589;SDS011;32313;48.722;9.362;2022-09-13T09:24:33;7.40;;;3.20;;
46589;SDS011;32313;48.722;9.362;2022-09-13T09:27:01;3.73;;;2.70;;
46589;SDS011;32313;48.722;9.362;2022-09-13T09:29:39;3.83;;;2.90;;
46589;SDS011;32313;48.722;9.362;2022-09-13T09:37:45;6.37;;;2.80;;
46589;SDS011;32313;48.722;9.362;2022-09-13T09:40:23;7.03;;;2.53;;
46589;SDS011;32313;48.722;9.362;2022-09-13T09:42:49;3.27;;;2.20;;
46589;SDS011;32313;48.722;9.362;2022-09-13T09:45:25;2.55;;;2.00;;
46589;SDS011;32313;48.722;9.362;2022-09-13T09:47:57;3.97;;;2.33;;
46589;SDS011;32313;48.722;9.362;2022-09-13T09:50:26;4.15;;;1.98;;
46589;SDS011;32313;48.722;9.362;2022-09-13T09:53:00;2.97;;;1.95;;
46589;SDS011;32313;48.722;9.362;2022-09-13T09:58:41;3.42;;;1.90;;
46589;SDS011;32313;48.722;9.362;2022-09-13T10:01:13;2.90;;;1.83;;
46589;SDS011;32313;48.722;9.362;2022-09-13T10:03:53;3.67;;;1.80;;
46589;SDS011;32313;48.722;9.362;2022-09-13T10:06:32;7.78;;;2.10;;
46589;SDS011;32313;48.722;9.362;2022-09-13T10:09:19;4.40;;;1.70;;
46589;SDS011;32313;48.722;9.362;2022-09-13T10:11:50;4.10;;;2.17;;
46589;SDS011;32313;48.722;9.362;2022-09-13T10:17:01;6.40;;;1.90;;
46589;SDS011;32313;48.722;9.362;2022-09-13T10:22:22;2.00;;;1.80;;
46589;SDS011;32313;48.722;9.362;2022-09-13T10:24:50;5.45;;;2.03;;
46589;SDS011;32313;48.722;9.362;2022-09-13T10:27:18;3.22;;;1.70;;
46589;SDS011;32313;48.722;9.362;2022-09-13T10:29:48;3.30;;;2.00;;
46589;SDS011;32313;48.722;9.362;2022-09-13T10:32:19;4.28;;;2.00;;
46589;SDS011;32313;48.722;9.362;2022-09-13T10:34:46;3.25;;;2.05;;
46589;SDS011;32313;48.722;9.362;2022-09-13T10:37:15;4.00;;;1.73;;
46589;SDS011;32313;48.722;9.362;2022-09-13T10:39:56;3.47;;;1.77;;
46589;SDS011;32313;48.722;9.362;2022-09-13T10:42:32;2.40;;;1.60;;
46589;SDS011;32313;48.722;9.362;2022-09-13T10:45:06;1.50;;;1.40;;
46589;SDS011;32313;48.722;9.362;2022-09-13T10:47:48;2.53;;;1.65;;
46589;SDS011;32313;48.722;9.362;2022-09-13T10:50:20;2.60;;;1.33;;
46589;SDS011;32313;48.722;9.362;2022-09-13T10:52:51;2.33;;;1.27;;
46589;SDS011;32313;48.722;9.362;2022-09-13T10:57:44;1.58;;;1.20;;
46589;SDS011;32313;48.722;9.362;2022-09-13T11:00:12;2.10;;;1.13;;
46589;SDS011;32313;48.722;9.362;2022-09-13T11:05:51;1.35;;;1.13;;
46589;SDS011;32313;48.722;9.362;2022-09-13T11:25:37;0.82;;;0.80;;
46589;SDS011;32313;48.722;9.362;2022-09-13T11:31:30;1.65;;;0.70;;
46589;SDS011;32313;48.722;9.362;2022-09-13T11:34:35;1.20;;;0.70;;
46589;SDS011;32313;48.722;9.362;2022-09-13T11:40:08;2.55;;;0.93;;
46589;SDS011;32313;48.722;9.362;2022-09-13T11:42:53;0.95;;;0.80;;
46589;SDS011;32313;48.722;9.362;2022-09-13T11:45:28;1.52;;;0.90;;
46589;SDS011;32313;48.722;9.362;2022-09-13T11:50:54;2.05;;;0.80;;
46589;SDS011;32313;48.722;9.362;2022-09-13T11:53:49;1.75;;;0.93;;
46589;SDS011;32313;48.722;9.362;2022-09-13T11:56:30;1.27;;;0.70;;
46589;SDS011;32313;48.722;9.362;2022-09-13T11:59:18;0.73;;;0.73;;
46589;SDS011;32313;48.722;9.362;2022-09-13T12:01:54;2.53;;;0.93;;
46589;SDS011;32313;48.722;9.362;2022-09-13T12:04:24;2.47;;;1.00;;
46589;SDS011;32313;48.722;9.362;2022-09-13T12:07:01;1.48;;;0.90;;
46589;SDS011;32313;48.722;9.362;2022-09-13T12:09:32;1.88;;;0.80;;
46589;SDS011;32313;48.722;9.362;2022-09-13T12:12:12;0.80;;;0.60;;
46589;SDS011;32313;48.722;9.362;2022-09-13T12:14:45;1.02;;;0.73;;
46589;SDS011;32313;48.722;9.362;2022-09-13T12:17:40;0.70;;;0.70;;
46589;SDS011;32313;48.722;9.362;2022-09-13T12:20:12;1.35;;;0.70;;
46589;SDS011;32313;48.722;9.362;2022-09-13T12:22:48;0.77;;;0.77;;
46589;SDS011;32313;48.722;9.362;2022-09-13T12:25:18;1.05;;;0.90;;
46589;SDS011;32313;48.722;9.362;2022-09-13T12:27:50;0.80;;;0.80;;
46589;SDS011;32313;48.722;9.362;2022-09-13T12:30:24;1.08;;;0.90;;
46589;SDS011;32313;48.722;9.362;2022-09-13T12:32:59;1.00;;;0.90;;
46589;SDS011;32313;48.722;9.362;2022-09-13T12:35:37;1.33;;;1.00;;
46589;SDS011;32313;48.722;9.362;2022-09-13T12:41:34;1.00;;;0.90;;
46589;SDS011;32313;48.722;9.362;2022-09-13T12:44:11;1.15;;;0.85;;
46589;SDS011;32313;48.722;9.362;2022-09-13T12:55:02;0.60;;;0.60;;
46589;SDS011;32313;48.722;9.362;2022-09-13T13:01:13;0.63;;;0.55;;
46589;SDS011;32313;48.722;9.362;2022-09-13T13:04:03;0.38;;;0.30;;
46589;SDS011;32313;48.722;9.362;2022-09-13T13:06:46;1.13;;;0.60;;
46589;SDS011;32313;48.722;9.362;2022-09-13T13:09:21;2.92;;;0.50;;
46589;SDS011;32313;48.722;9.362;2022-09-13T13:11:59;0.47;;;0.38;;
46589;SDS011;32313;48.722;9.362;2022-09-13T13:34:03;0.82;;;0.50;;
46589;SDS011;32313;48.722;9.362;2022-09-13T13:36:53;0.82;;;0.57;;
46589;SDS011;32313;48.722;9.362;2022-09-13T13:41:55;1.08;;;0.60;;
46589;SDS011;32313;48.722;9.362;2022-09-13T13:46:50;1.48;;;0.70;;
46589;SDS011;32313;48.722;9.362;2022-09-13T14:00:03;1.27;;;0.40;;
46589;SDS011;32313;48.722;9.362;2022-09-13T14:03:04;1.40;;;0.57;;
46589;SDS011;32313;48.722;9.362;2022-09-13T14:08:32;0.80;;;0.80;;
46589;SDS011;32313;48.722;9.362;2022-09-13T14:11:32;1.05;;;0.77;;
46589;SDS011;32313;48.722;9.362;2022-09-13T14:14:21;0.88;;;0.68;;
46589;SDS011;32313;48.722;9.362;2022-09-13T14:19:43;0.95;;;0.68;;
46589;SDS011;32313;48.722;9.362;2022-09-13T14:22:19;2.03;;;0.63;;
46589;SDS011;32313;48.722;9.362;2022-09-13T14:25:11;0.65;;;0.60;;
46589;SDS011;32313;48.722;9.362;2022-09-13T14:27:38;1.85;;;0.82;;
46589;SDS011;32313;48.722;9.362;2022-09-13T14:32:52;2.08;;;0.90;;
46589;SDS011;32313;48.722;9.362;2022-09-13T14:37:55;1.13;;;0.88;;
46589;SDS011;32313;48.722;9.362;2022-09-13T14:40:33;0.85;;;0.70;;
46589;SDS011;32313;48.722;9.362;2022-09-13T14:42:59;0.90;;;0.55;;
46589;SDS011;32313;48.722;9.362;2022-09-13T14:45:32;0.80;;;0.80;;
46589;SDS011;32313;48.722;9.362;2022-09-13T14:48:01;2.20;;;0.93;;
46589;SDS011;32313;48.722;9.362;2022-09-13T14:50:34;1.45;;;0.63;;
46589;SDS011;32313;48.722;9.362;2022-09-13T14:53:05;2.08;;;1.00;;
46589;SDS011;32313;48.722;9.362;2022-09-13T14:55:36;2.22;;;1.10;;
46589;SDS011;32313;48.722;9.362;2022-09-13T14:58:11;1.45;;;1.00;;
46589;SDS011;32313;48.722;9.362;2022-09-13T15:00:46;1.73;;;1.02;;
46589;SDS011;32313;48.722;9.362;2022-09-13T15:03:15;1.08;;;0.85;;
46589;SDS011;32313;48.722;9.362;2022-09-13T15:05:48;1.67;;;0.80;;
46589;SDS011;32313;48.722;9.362;2022-09-13T15:08:25;2.17;;;1.13;;
46589;SDS011;32313;48.722;9.362;2022-09-13T15:10:51;3.95;;;1.00;;
46589;SDS011;32313;48.722;9.362;2022-09-13T15:13:20;2.97;;;1.10;;
46589;SDS011;32313;48.722;9.362;2022-09-13T15:15:46;1.13;;;0.98;;
46589;SDS011;32313;48.722;9.362;2022-09-13T15:20:59;3.78;;;1.00;;
46589;SDS011;32313;48.722;9.362;2022-09-13T15:23:30;4.20;;;1.13;;
46589;SDS011;32313;48.722;9.362;2022-09-13T15:26:03;1.25;;;1.08;;
46589;SDS011;32313;48.722;9.362;2022-09-13T15:28:32;1.08;;;0.85;;
46589;SDS011;32313;48.722;9.362;2022-09-13T15:31:27;3.05;;;1.17;;
46589;SDS011;32313;48.722;9.362;2022-09-13T15:34:10;1.95;;;1.13;;
46589;SDS011;32313;48.722;9.362;2022-09-13T15:36:47;3.20;;;1.10;;
46589;SDS011;32313;48.722;9.362;2022-09-13T15:39:43;2.28;;;1.00;;
46589;SDS011;32313;48.722;9.362;2022-09-13T15:42:12;0.95;;;0.63;;
46589;SDS011;32313;48.722;9.362;2022-09-13T15:44:37;2.40;;;1.05;;
46589;SDS011;32313;48.722;9.362;2022-09-13T15:47:07;2.05;;;1.55;;
46589;SDS011;32313;48.722;9.362;2022-09-13T15:49:40;5.60;;;3.28;;
46589;SDS011;32313;48.722;9.362;2022-09-13T15:52:16;4.97;;;2.22;;
46589;SDS011;32313;48.722;9.362;2022-09-13T15:54:45;1.85;;;1.35;;
46589;SDS011;32313;48.722;9.362;2022-09-13T15:57:26;1.75;;;1.60;;
46589;SDS011;32313;48.722;9.362;2022-09-13T15:59:53;2.83;;;1.20;;
46589;SDS011;32313;48.722;9.362;2022-09-13T16:02:25;1.75;;;1.20;;
46589;SDS011;32313;48.722;9.362;2022-09-13T16:04:53;1.42;;;1.23;;
46589;SDS011;32313;48.722;9.362;2022-09-13T16:07:19;1.50;;;1.40;;
46589;SDS011;32313;48.722;9.362;2022-09-13T16:09:45;1.63;;;1.20;;
46589;SDS011;32313;48.722;9.362;2022-09-13T16:12:12;1.10;;;1.00;;
46589;SDS011;32313;48.722;9.362;2022-09-13T16:14:38;2.10;;;0.95;;
46589;SDS011;32313;48.722;9.362;2022-09-13T16:17:05;2.95;;;1.17;;
46589;SDS011;32313;48.722;9.362;2022-09-13T16:19:35;3.22;;;1.20;;
46589;SDS011;32313;48.722;9.362;2022-09-13T16:22:01;3.10;;;1.00;;
46589;SDS011;32313;48.722;9.362;2022-09-13T16:24:27;1.70;;;1.38;;
46589;SDS011;32313;48.722;9.362;2022-09-13T16:26:53;0.80;;;0.80;;
46589;SDS011;32313;48.722;9.362;2022-09-13T16:29:18;3.78;;;1.33;;
46589;SDS011;32313;48.722;9.362;2022-09-13T16:31:44;1.27;;;1.10;;
46589;SDS011;32313;48.722;9.362;2022-09-13T16:34:10;1.27;;;1.17;;
46589;SDS011;32313;48.722;9.362;2022-09-13T16:36:36;2.03;;;1.40;;
46589;SDS011;32313;48.722;9.362;2022-09-13T16:39:02;1.30;;;1.20;;
46589;SDS011;32313;48.722;9.362;2022-09-13T16:41:27;2.37;;;1.20;;
46589;SDS011;32313;48.722;9.362;2022-09-13T16:43:53;3.43;;;1.60;;
46589;SDS011;32313;48.722;9.362;2022-09-13T16:46:19;2.13;;;1.40;;
46589;SDS011;32313;48.722;9.362;2022-09-13T16:48:50;1.90;;;1.70;;
46589;SDS011;32313;48.722;9.362;2022-09-13T16:51:20;3.67;;;1.80;;
46589;SDS011;32313;48.722;9.362;2022-09-13T16:53:48;2.53;;;1.70;;
46589;SDS011;32313;48.722;9.362;2022-09-13T16:56:15;2.27;;;1.30;;
46589;SDS011;32313;48.722;9.362;2022-09-13T16:58:43;1.70;;;1.40;;
46589;SDS011;32313;48.722;9.362;2022-09-13T17:01:14;5.03;;;1.60;;
46589;SDS011;32313;48.722;9.362;2022-09-13T17:03:42;2.97;;;1.73;;
46589;SDS011;32313;48.722;9.362;2022-09-13T17:06:09;4.07;;;1.80;;
46589;SDS011;32313;48.722;9.362;2022-09-13T17:08:36;3.67;;;1.70;;
46589;SDS011;32313;48.722;9.362;2022-09-13T17:11:04;4.43;;;1.77;;
46589;SDS011;32313;48.722;9.362;2022-09-13T17:13:31;3.93;;;2.10;;
46589;SDS011;32313;48.722;9.362;2022-09-13T17:15:57;4.13;;;1.70;;
46589;SDS011;32313;48.722;9.362;2022-09-13T17:18:23;4.67;;;2.20;;
46589;SDS011;32313;48.722;9.362;2022-09-13T17:20:54;5.37;;;2.83;;
46589;SDS011;32313;48.722;9.362;2022-09-13T17:23:20;6.27;;;2.53;;
46589;SDS011;32313;48.722;9.362;2022-09-13T17:25:46;2.47;;;2.27;;
46589;SDS011;32313;48.722;9.362;2022-09-13T17:28:13;3.43;;;1.90;;
46589;SDS011;32313;48.722;9.362;2022-09-13T17:30:40;8.73;;;2.47;;
46589;SDS011;32313;48.722;9.362;2022-09-13T17:33:06;4.17;;;1.90;;
46589;SDS011;32313;48.722;9.362;2022-09-13T17:35:32;4.17;;;1.97;;
46589;SDS011;32313;48.722;9.362;2022-09-13T17:37:59;3.63;;;1.97;;
46589;SDS011;32313;48.722;9.362;2022-09-13T17:40:26;6.07;;;2.00;;
46589;SDS011;32313;48.722;9.362;2022-09-13T17:42:53;2.63;;;1.87;;
46589;SDS011;32313;48.722;9.362;2022-09-13T17:45:19;4.77;;;1.70;;
46589;SDS011;32313;48.722;9.362;2022-09-13T17:47:46;3.53;;;1.80;;
46589;SDS011;32313;48.722;9.362;2022-09-13T17:50:12;3.33;;;2.00;;
46589;SDS011;32313;48.722;9.362;2022-09-13T17:52:38;3.27;;;1.93;;